Time;durP1;ratioP1;P1;durP2;ratioP2;P2;SDS_P1;SDS_P2;PMS_P1;PMS_P2;Temp;Humidity;BMP_temperature;BMP_pressure;BME280_temperature;BME280_humidity;BME280_pressure;Samples;Min_cycle;Max_cycle;Signal;HPM_P1;HPM_P2
2023/04/22 00:00:12;;;;;;;23.70;10.40;;;;;;;18.73;38.92;99474.77;108099;1253;69529;-68
2023/04/22 00:02:41;;;;;;;25.50;11.20;;;;;;;18.77;38.75;99478.19;108053;1254;73927;-67
2023/04/22 00:05:12;;;;;;;23.50;10.40;;;;;;;18.69;38.72;99479.88;108134;1254;61261;-67
2023/04/22 00:07:44;;;;;;;18.50;9.70;;;;;;;18.55;38.91;99474.56;108125;1253;61271;-68
2023/04/22 00:10:12;;;;;;;20.30;10.60;;;;;;;18.63;38.75;99473.56;108101;1254;74532;-66
2023/04/22 00:12:40;;;;;;;17.80;9.20;;;;;;;18.84;38.40;99468.92;108119;1254;69199;-66
2023/04/22 00:15:09;;;;;;;29.00;11.90;;;;;;;18.93;38.23;99469.27;108113;1253;72885;-68
2023/04/22 00:17:38;;;;;;;26.40;11.60;;;;;;;18.81;38.28;99476.65;108116;1254;62199;-67
2023/04/22 00:20:09;;;;;;;24.60;11.10;;;;;;;18.42;38.81;99473.87;108177;1256;60531;-67
2023/04/22 00:22:37;;;;;;;24.10;11.30;;;;;;;18.49;38.72;99476.83;108236;1253;73179;-67
2023/04/22 00:25:06;;;;;;;23.10;10.30;;;;;;;18.46;38.77;99475.84;108144;1254;71341;-68
2023/04/22 00:27:37;;;;;;;26.70;12.10;;;;;;;18.18;39.08;99473.81;108171;1254;73691;-69
2023/04/22 00:30:06;;;;;;;24.10;11.50;;;;;;;18.52;38.68;99480.16;108171;1254;62315;-67
2023/04/22 00:32:34;;;;;;;22.00;10.30;;;;;;;18.35;38.74;99482.58;108212;1254;60422;-68
2023/04/22 00:35:02;;;;;;;21.10;11.10;;;;;;;18.03;39.23;99494.00;108199;1254;74740;-68
2023/04/22 00:37:31;;;;;;;20.60;10.40;;;;;;;17.94;39.33;99496.95;108090;1254;71406;-66
2023/04/22 00:39:59;;;;;;;30.60;10.50;;;;;;;17.98;39.23;99497.97;108159;1254;73650;-67
2023/04/22 00:42:27;;;;;;;30.70;11.80;;;;;;;17.86;39.22;99495.66;108180;1254;61909;-66
2023/04/22 00:44:55;;;;;;;22.40;10.90;;;;;;;17.75;39.34;99497.36;108091;1254;60448;-67
2023/04/22 00:47:25;;;;;;;23.70;12.00;;;;;;;17.56;39.69;99493.55;108184;1254;73601;-67
2023/04/22 00:49:54;;;;;;;25.60;12.20;;;;;;;17.50;39.89;99498.77;108226;1254;71412;-67
2023/04/22 00:52:22;;;;;;;19.60;10.10;;;;;;;17.62;39.64;99497.80;108218;1253;73540;-63
2023/04/22 00:54:51;;;;;;;28.30;12.20;;;;;;;17.73;39.36;99494.69;108260;1253;61301;-67
2023/04/22 00:57:19;;;;;;;24.20;10.80;;;;;;;17.71;39.36;99496.61;108237;1253;60459;-67
2023/04/22 00:59:47;;;;;;;18.70;10.00;;;;;;;17.75;39.25;99493.51;108180;1252;74049;-67
2023/04/22 01:02:18;;;;;;;26.80;11.50;;;;;;;17.65;39.30;99496.05;108204;1252;70917;-67
2023/04/22 01:04:47;;;;;;;24.90;12.10;;;;;;;17.59;39.31;99493.27;108143;1252;72577;-66
2023/04/22 01:07:15;;;;;;;22.40;12.50;;;;;;;17.68;39.21;99490.77;108251;1254;60565;-67
2023/04/22 01:09:43;;;;;;;30.20;12.70;;;;;;;17.54;39.46;99493.81;108153;1253;61120;-67
2023/04/22 01:12:11;;;;;;;25.50;11.90;;;;;;;17.51;39.49;99493.37;108080;1253;75073;-67
2023/04/22 01:14:40;;;;;;;30.00;12.50;;;;;;;17.67;39.11;99494.95;108270;1253;71272;-69
2023/04/22 01:17:09;;;;;;;21.60;10.30;;;;;;;17.59;39.12;99495.27;108224;1253;73487;-65
2023/04/22 01:19:37;;;;;;;23.90;10.40;;;;;;;17.60;39.18;99498.53;108235;1253;62290;-68
2023/04/22 01:22:07;;;;;;;27.80;11.70;;;;;;;17.59;39.09;99499.99;108332;1253;60332;-65
2023/04/22 01:24:35;;;;;;;22.40;10.70;;;;;;;17.60;39.24;99493.59;108318;1254;75157;-66
2023/04/22 01:27:07;;;;;;;24.00;10.70;;;;;;;17.60;39.25;99494.25;108252;1253;69556;-67
2023/04/22 01:29:36;;;;;;;28.80;11.60;;;;;;;17.50;39.34;99496.44;108151;1254;73020;-64
2023/04/22 01:32:05;;;;;;;19.40;10.00;;;;;;;17.26;39.50;99499.30;108268;1253;60420;-66
2023/04/22 01:34:34;;;;;;;23.00;12.70;;;;;;;17.15;39.74;99497.08;108412;1252;60532;-67
2023/04/22 01:37:02;;;;;;;23.50;11.40;;;;;;;17.39;39.39;99501.01;108327;1253;73624;-68
2023/04/22 01:39:30;;;;;;;22.60;10.90;;;;;;;17.46;39.20;99498.53;108290;1254;71412;-66
2023/04/22 01:41:58;;;;;;;23.90;12.30;;;;;;;17.45;38.94;99502.16;108246;1253;73920;-66
2023/04/22 01:44:26;;;;;;;23.90;11.40;;;;;;;17.23;39.25;99501.27;108171;1253;60835;-67
2023/04/22 01:46:54;;;;;;;23.30;12.00;;;;;;;17.18;39.14;99504.19;108231;1252;60561;-67
2023/04/22 01:49:22;;;;;;;19.90;11.20;;;;;;;16.98;39.39;99506.33;108208;1253;72927;-68
2023/04/22 01:51:51;;;;;;;21.30;10.60;;;;;;;16.88;39.82;99502.84;108343;1253;70161;-67
2023/04/22 01:54:20;;;;;;;27.30;12.50;;;;;;;17.03;39.54;99502.99;108307;1252;74335;-66
2023/04/22 01:56:51;;;;;;;21.10;12.00;;;;;;;16.97;39.53;99502.55;108073;1254;60695;-67
2023/04/22 01:59:20;;;;;;;23.70;12.70;;;;;;;16.80;39.76;99504.44;108139;1253;61345;-66
2023/04/22 02:01:49;;;;;;;30.70;12.90;;;;;;;16.82;39.68;99505.23;108249;1253;74181;-69
2023/04/22 02:04:17;;;;;;;22.60;11.50;;;;;;;17.00;39.42;99507.07;108225;1254;69397;-66
2023/04/22 02:06:46;;;;;;;28.30;12.90;;;;;;;17.10;39.37;99509.19;108248;1253;73703;-66
2023/04/22 02:09:14;;;;;;;20.50;10.70;;;;;;;16.98;39.43;99509.16;108107;1253;61257;-67
2023/04/22 02:11:42;;;;;;;24.80;12.90;;;;;;;17.01;39.36;99509.66;108264;1253;61481;-66
2023/04/22 02:14:12;;;;;;;25.10;12.60;;;;;;;16.97;39.35;99516.91;108267;1253;74943;-67
2023/04/22 02:16:41;;;;;;;19.40;11.30;;;;;;;17.14;38.86;99514.40;108126;1257;71416;-67
2023/04/22 02:19:09;;;;;;;26.90;13.20;;;;;;;16.90;39.20;99513.14;108217;1253;73658;-66
2023/04/22 02:21:38;;;;;;;23.00;13.00;;;;;;;17.04;39.05;99515.48;108269;1253;60842;-65
2023/04/22 02:24:06;;;;;;;19.00;11.50;;;;;;;17.04;39.00;99520.32;108226;1253;60065;-66
2023/04/22 02:26:34;;;;;;;26.40;11.30;;;;;;;16.98;38.97;99521.06;108046;1253;72455;-67
2023/04/22 02:29:02;;;;;;;23.50;11.50;;;;;;;16.99;38.81;99520.96;108192;1253;70958;-66
2023/04/22 02:31:30;;;;;;;21.40;11.90;;;;;;;16.96;38.83;99517.48;107992;1254;73819;-67
2023/04/22 02:33:59;;;;;;;28.30;12.60;;;;;;;16.84;38.99;99518.20;108234;1253;62080;-66
2023/04/22 02:36:27;;;;;;;20.00;11.40;;;;;;;16.87;38.90;99517.61;108231;1253;60200;-65
2023/04/22 02:38:55;;;;;;;23.60;12.80;;;;;;;16.97;38.81;99516.94;108112;1253;74266;-67
2023/04/22 02:41:23;;;;;;;22.90;12.60;;;;;;;16.79;38.86;99516.59;108206;1252;70199;-68
2023/04/22 02:43:52;;;;;;;29.80;12.40;;;;;;;16.66;39.10;99520.52;108147;1253;73426;-68
2023/04/22 02:46:20;;;;;;;25.90;13.20;;;;;;;16.58;39.27;99521.27;108206;1253;60739;-66
2023/04/22 02:48:48;;;;;;;20.40;12.80;;;;;;;16.60;39.18;99524.31;108269;1253;60351;-66
2023/04/22 02:51:17;;;;;;;19.80;11.20;;;;;;;16.39;39.69;99520.34;108233;1252;73420;-67
2023/04/22 02:53:45;;;;;;;20.60;12.10;;;;;;;16.47;39.57;99520.96;108295;1252;71587;-65
2023/04/22 02:56:13;;;;;;;21.20;10.80;;;;;;;16.44;39.80;99519.62;108088;1253;71763;-64
2023/04/22 02:58:41;;;;;;;24.00;12.10;;;;;;;16.42;39.83;99517.99;108176;1253;62165;-66
2023/04/22 03:01:11;;;;;;;24.70;11.20;;;;;;;16.28;39.83;99519.88;108103;1253;61572;-67
2023/04/22 03:03:40;;;;;;;28.00;12.60;;;;;;;16.26;39.82;99521.06;108264;1252;75001;-67
2023/04/22 03:06:10;;;;;;;27.90;12.70;;;;;;;16.21;39.79;99521.40;108271;1253;71271;-66
2023/04/22 03:08:38;;;;;;;23.30;12.00;;;;;;;15.88;40.42;99524.24;108173;1253;72660;-66
2023/04/22 03:11:06;;;;;;;24.40;12.70;;;;;;;15.81;40.68;99529.08;107944;1255;302777;-67
2023/04/22 03:15:09;;;;;;;25.20;13.00;;;;;;;11.40;50.69;99544.02;104769;1292;601013;-66
2023/04/22 03:17:37;;;;;;;20.30;12.00;;;;;;;13.28;46.83;99544.90;107293;1267;62301;-65
2023/04/22 03:20:10;;;;;;;21.20;11.00;;;;;;;13.91;45.94;99541.93;107290;1266;59597;-66
2023/04/22 03:22:38;;;;;;;22.60;12.30;;;;;;;14.16;45.80;99539.75;107299;1266;72646;-66
2023/04/22 03:25:09;;;;;;;31.20;12.30;;;;;;;14.76;45.02;99546.44;107338;1267;69154;-67
2023/04/22 03:27:38;;;;;;;20.70;11.50;;;;;;;15.22;44.30;99543.61;107096;1267;234589;-67
2023/04/22 03:30:06;;;;;;;19.80;12.40;;;;;;;15.31;44.42;99544.48;107449;1264;61161;-64
2023/04/22 03:32:35;;;;;;;17.30;10.10;;;;;;;15.59;44.40;99546.84;107947;1260;59442;-66
2023/04/22 03:35:15;;;;;;;17.90;10.40;;;;;;;16.05;43.72;99544.50;107998;1257;73119;-66
2023/04/22 03:37:44;;;;;;;17.10;11.00;;;;;;;16.35;43.25;99547.86;107904;1257;71111;-67
2023/04/22 03:40:12;;;;;;;18.00;10.30;;;;;;;16.58;42.99;99554.23;107906;1258;73581;-68
2023/04/22 03:42:41;;;;;;;18.10;9.60;;;;;;;17.10;42.24;99557.94;108022;1258;62074;-66
2023/04/22 03:45:10;;;;;;;20.00;9.60;;;;;;;17.46;41.88;99559.90;107995;1257;61529;-66
2023/04/22 03:47:41;;;;;;;15.90;9.00;;;;;;;17.92;41.29;99556.80;107943;1257;74228;-66
2023/04/22 03:50:17;;;;;;;16.30;9.90;;;;;;;18.37;40.58;99558.83;107952;1260;71672;-66
2023/04/22 03:52:45;;;;;;;17.50;10.40;;;;;;;18.85;39.78;99560.20;107898;1256;73721;-66
2023/04/22 03:55:16;;;;;;;19.20;9.70;;;;;;;19.25;39.23;99562.52;107945;1257;61881;-65
2023/04/22 03:57:44;;;;;;;16.40;9.10;;;;;;;19.38;38.76;99567.51;107889;1259;59880;-67
2023/04/22 04:00:13;;;;;;;17.70;9.90;;;;;;;19.43;38.61;99566.48;108021;1257;74263;-68
2023/04/22 04:02:41;;;;;;;21.80;9.40;;;;;;;19.63;38.25;99566.48;108029;1258;71230;-69
2023/04/22 04:05:11;;;;;;;12.30;8.70;;;;;;;20.10;37.67;99568.30;107959;1257;71364;-69
2023/04/22 04:07:41;;;;;;;15.60;8.40;;;;;;;20.93;36.67;99570.48;107969;1258;61183;-69
2023/04/22 04:10:10;;;;;;;13.80;8.30;;;;;;;21.36;36.02;99572.31;107907;1258;59829;-67
2023/04/22 04:12:38;;;;;;;13.10;7.70;;;;;;;21.82;35.35;99571.96;107904;1257;73296;-66
2023/04/22 04:15:07;;;;;;;18.30;9.90;;;;;;;22.19;34.77;99572.38;107919;1257;69692;-66
2023/04/22 04:17:36;;;;;;;15.60;8.80;;;;;;;22.75;34.02;99571.85;107899;1257;73241;-68
2023/04/22 04:20:05;;;;;;;14.70;8.30;;;;;;;22.98;33.50;99569.36;107925;1260;61916;-68
2023/04/22 04:22:34;;;;;;;13.80;8.50;;;;;;;23.15;33.37;99574.67;107905;1258;60572;-68
2023/04/22 04:25:05;;;;;;;11.80;8.40;;;;;;;23.31;32.77;99576.88;107922;1257;73884;-68
2023/04/22 04:27:38;;;;;;;12.20;7.60;;;;;;;23.70;32.07;99580.86;108033;1259;70620;-69
2023/04/22 04:30:08;;;;;;;14.20;8.00;;;;;;;23.61;32.11;99582.67;107985;1257;73317;-68
2023/04/22 04:32:44;;;;;;;13.30;8.00;;;;;;;23.87;31.88;99585.23;107795;1257;60112;-67
2023/04/22 04:35:15;;;;;;;14.90;8.10;;;;;;;24.23;31.08;99584.62;107948;1257;61656;-69
2023/04/22 04:37:46;;;;;;;13.50;7.80;;;;;;;24.43;30.40;99588.85;108091;1254;73708;-70
2023/04/22 04:40:15;;;;;;;14.30;8.30;;;;;;;24.78;29.17;99591.65;108177;1254;70263;-67
2023/04/22 04:42:51;;;;;;;14.20;7.90;;;;;;;25.19;28.48;99594.20;108085;1258;73139;-69
2023/04/22 04:45:23;;;;;;;13.00;8.20;;;;;;;25.29;27.92;99592.92;108047;1254;60202;-68
2023/04/22 04:47:54;;;;;;;14.60;8.50;;;;;;;25.25;27.71;99595.70;108034;1254;61571;-66
2023/04/22 04:50:26;;;;;;;10.60;7.30;;;;;;;26.06;26.30;99598.63;108093;1254;73828;-68
2023/04/22 04:52:57;;;;;;;13.40;7.80;;;;;;;26.34;25.91;99597.65;108074;1257;71907;-68
2023/04/22 04:55:30;;;;;;;13.40;7.70;;;;;;;26.63;25.43;99595.55;108034;1254;71841;-69
2023/04/22 04:57:59;;;;;;;14.60;8.20;;;;;;;27.14;24.82;99596.34;107960;1254;59615;-69
2023/04/22 05:00:28;;;;;;;10.70;7.00;;;;;;;27.23;24.08;99596.39;108013;1256;60512;-67
2023/04/22 05:02:56;;;;;;;14.70;7.80;;;;;;;27.35;23.88;99603.14;107989;1254;73169;-68
2023/04/22 05:05:24;;;;;;;13.00;7.50;;;;;;;27.52;23.49;99597.88;107905;1254;69255;-67
2023/04/22 05:07:52;;;;;;;15.10;7.90;;;;;;;28.05;23.14;99598.39;108058;1260;72317;-69
2023/04/22 05:10:20;;;;;;;13.60;8.40;;;;;;;28.32;22.52;99595.93;108001;1255;59522;-67
2023/04/22 05:12:49;;;;;;;9.80;6.80;;;;;;;28.47;21.80;99593.20;107908;1256;61329;-67
2023/04/22 05:15:21;;;;;;;12.10;8.10;;;;;;;28.81;21.86;99597.59;108048;1255;73597;-69
2023/04/22 05:17:49;;;;;;;15.00;8.30;;;;;;;29.27;21.12;99602.35;108041;1254;70840;-69
2023/04/22 05:20:17;;;;;;;14.20;8.10;;;;;;;29.41;20.50;99599.98;108013;1259;72346;-69
2023/04/22 05:22:45;;;;;;;15.20;8.40;;;;;;;29.43;20.74;99604.41;108029;1254;61583;-68
2023/04/22 05:25:15;;;;;;;11.60;7.50;;;;;;;29.56;20.79;99604.10;108040;1254;61307;-68
2023/04/22 05:27:50;;;;;;;9.50;7.10;;;;;;;30.20;19.96;99608.09;107944;1254;72894;-68
2023/04/22 05:30:18;;;;;;;11.40;8.00;;;;;;;30.32;19.58;99607.82;107989;1254;71332;-68
2023/04/22 05:32:46;;;;;;;12.80;8.20;;;;;;;30.42;19.00;99606.61;108008;1254;73187;-68
2023/04/22 05:35:15;;;;;;;16.10;8.00;;;;;;;30.33;18.89;99607.80;108015;1254;61195;-68
2023/04/22 05:37:43;;;;;;;12.90;7.50;;;;;;;29.92;19.52;99610.91;108043;1254;59978;-68
2023/04/22 05:40:11;;;;;;;13.60;8.00;;;;;;;30.02;19.38;99606.68;108066;1254;73768;-67
2023/04/22 05:42:39;;;;;;;15.00;7.90;;;;;;;30.46;19.20;99609.77;107895;1254;70714;-67
2023/04/22 05:45:08;;;;;;;14.00;7.90;;;;;;;30.66;19.26;99608.98;107963;1259;72487;-68
2023/04/22 05:47:37;;;;;;;14.80;7.80;;;;;;;30.99;19.25;99602.66;108035;1254;61421;-68
2023/04/22 05:50:06;;;;;;;11.00;7.50;;;;;;;31.45;18.69;99606.39;108039;1254;59541;-67
2023/04/22 05:52:40;;;;;;;11.00;7.30;;;;;;;31.81;18.06;99602.84;107936;1256;74209;-67
2023/04/22 05:55:14;;;;;;;11.90;7.70;;;;;;;32.06;18.20;99606.31;108072;1258;71334;-67
2023/04/22 05:57:43;;;;;;;12.90;7.90;;;;;;;32.06;18.07;99606.13;107948;1254;72862;-69
2023/04/22 06:00:22;;;;;;;10.90;7.10;;;;;;;32.22;17.83;99604.46;108013;1255;60114;-68
2023/04/22 06:02:56;;;;;;;15.00;7.80;;;;;;;32.57;17.70;99607.20;108043;1254;61254;-70
2023/04/22 06:05:25;;;;;;;12.40;7.10;;;;;;;32.53;17.61;99606.63;107936;1254;74596;-69
2023/04/22 06:07:53;;;;;;;13.70;7.10;;;;;;;32.62;17.58;99607.36;107834;1260;71310;-69
2023/04/22 06:10:21;;;;;;;11.10;7.20;;;;;;;32.69;17.46;99608.85;108005;1254;72415;-68
2023/04/22 06:12:49;;;;;;;14.00;8.20;;;;;;;32.72;17.38;99612.12;107978;1255;60680;-69
2023/04/22 06:15:17;;;;;;;13.60;7.60;;;;;;;33.05;16.90;99612.49;107920;1254;60367;-69
2023/04/22 06:17:47;;;;;;;13.00;7.70;;;;;;;32.87;17.39;99606.02;108045;1254;73324;-69
2023/04/22 06:20:15;;;;;;;13.10;7.40;;;;;;;32.85;17.34;99611.63;108043;1258;71639;-69
2023/04/22 06:22:43;;;;;;;12.50;7.30;;;;;;;33.13;17.45;99616.27;108047;1254;72731;-68
2023/04/22 06:25:12;;;;;;;12.50;7.50;;;;;;;33.66;17.05;99613.71;108039;1256;60544;-69
2023/04/22 06:27:40;;;;;;;9.50;7.20;;;;;;;33.82;16.81;99619.05;107926;1259;60360;-69
2023/04/22 06:30:10;;;;;;;11.50;7.10;;;;;;;33.76;16.81;99617.73;107922;1254;73152;-69
2023/04/22 06:32:39;;;;;;;10.80;8.00;;;;;;;33.99;16.59;99617.23;107966;1254;71150;-68
2023/04/22 06:35:08;;;;;;;11.40;7.60;;;;;;;34.03;16.39;99621.06;107891;1254;74155;-69
2023/04/22 06:37:35;;;;;;;12.10;7.10;;;;;;;33.85;16.68;99626.23;107994;1254;60877;-70
2023/04/22 06:40:06;;;;;;;9.40;7.00;;;;;;;33.97;16.48;99625.27;107868;1254;59359;-71
2023/04/22 06:42:55;;;;;;;11.70;7.70;;;;;;;33.89;16.53;99627.68;108050;1254;72350;-69
2023/04/22 06:45:41;;;;;;;13.10;8.30;;;;;;;34.07;16.15;99633.48;107882;1254;70887;-69
2023/04/22 06:48:34;;;;;;;14.20;8.00;;;;;;;34.29;16.06;99636.88;107935;1254;72844;-68
2023/04/22 06:51:13;;;;;;;13.40;8.40;;;;;;;34.67;15.97;99637.89;107811;1254;59532;-69
2023/04/22 06:53:41;;;;;;;14.70;8.20;;;;;;;34.48;15.95;99638.02;107983;1254;59410;-69
2023/04/22 06:56:11;;;;;;;12.10;7.70;;;;;;;33.84;16.36;99644.19;107969;1254;74550;-68
2023/04/22 06:58:39;;;;;;;12.10;8.20;;;;;;;33.70;16.86;99644.95;107942;1254;71071;-69
2023/04/22 07:01:07;;;;;;;16.20;7.70;;;;;;;33.64;17.06;99647.41;107939;1254;72900;-70
2023/04/22 07:03:36;;;;;;;11.90;7.80;;;;;;;33.65;16.84;99644.17;108101;1258;60588;-70
2023/04/22 07:06:08;;;;;;;14.70;7.90;;;;;;;33.51;17.03;99646.33;108052;1254;60559;-70
2023/04/22 07:08:36;;;;;;;13.30;8.20;;;;;;;33.43;16.86;99648.05;107891;1254;72682;-69
2023/04/22 07:11:04;;;;;;;12.30;8.00;;;;;;;32.83;16.89;99649.69;107998;1258;68272;-69
2023/04/22 07:14:02;;;;;;;13.30;8.50;;;;;;;32.58;17.35;99653.75;107927;1259;72592;-70
2023/04/22 07:16:30;;;;;;;13.90;8.30;;;;;;;32.27;17.08;99651.15;108039;1258;60664;-70
2023/04/22 07:18:58;;;;;;;11.50;8.00;;;;;;;31.77;17.06;99653.96;108061;1254;61098;-68
2023/04/22 07:21:26;;;;;;;13.40;7.90;;;;;;;31.51;17.56;99651.98;108054;1254;74282;-69
2023/04/22 07:23:54;;;;;;;15.20;8.10;;;;;;;31.68;17.31;99655.67;108064;1254;71540;-68
2023/04/22 07:26:22;;;;;;;11.40;8.10;;;;;;;31.85;17.59;99653.27;108037;1258;72487;-67
2023/04/22 07:28:50;;;;;;;12.80;7.70;;;;;;;31.78;17.56;99655.06;108079;1254;60611;-69
2023/04/22 07:31:19;;;;;;;10.50;7.90;;;;;;;31.60;17.36;99655.48;108122;1254;61583;-68
2023/04/22 07:33:48;;;;;;;15.70;7.90;;;;;;;31.71;17.36;99656.38;108095;1254;75823;-69
2023/04/22 07:36:16;;;;;;;15.60;7.80;;;;;;;31.88;16.90;99658.47;108050;1254;71578;-69
2023/04/22 07:38:44;;;;;;;12.80;7.90;;;;;;;32.10;16.89;99659.02;108066;1260;73451;-68
2023/04/22 07:41:12;;;;;;;14.40;8.30;;;;;;;32.04;16.68;99661.95;108111;1254;60834;-69
2023/04/22 07:43:43;;;;;;;15.30;7.90;;;;;;;31.95;16.55;99661.75;108125;1254;60313;-69
2023/04/22 07:46:11;;;;;;;18.00;7.70;;;;;;;32.10;17.02;99663.10;108039;1254;74127;-70
2023/04/22 07:48:40;;;;;;;14.80;7.80;;;;;;;32.19;16.62;99666.19;108030;1259;71514;-69
2023/04/22 07:51:08;;;;;;;12.00;7.70;;;;;;;32.22;16.68;99666.56;107998;1254;72598;-68
2023/04/22 07:53:36;;;;;;;14.10;7.80;;;;;;;32.46;16.56;99666.41;108009;1254;61639;-69
2023/04/22 07:56:04;;;;;;;9.60;6.70;;;;;;;32.58;16.33;99666.20;108046;1254;61530;-69
2023/04/22 07:58:32;;;;;;;11.70;7.10;;;;;;;32.85;16.51;99671.28;108023;1254;75134;-68
2023/04/22 08:01:00;;;;;;;15.60;7.10;;;;;;;32.89;16.26;99671.52;108043;1254;71428;-69
2023/04/22 08:03:28;;;;;;;17.50;7.50;;;;;;;32.62;16.14;99674.29;108020;1254;73598;-68
2023/04/22 08:05:57;;;;;;;12.70;7.60;;;;;;;32.65;16.12;99671.77;108040;1254;60485;-69
2023/04/22 08:08:25;;;;;;;11.60;7.10;;;;;;;32.73;16.08;99675.61;108041;1254;60444;-68
2023/04/22 08:10:53;;;;;;;12.70;6.40;;;;;;;32.87;16.11;99678.77;108027;1254;74163;-71
2023/04/22 08:13:21;;;;;;;10.00;6.50;;;;;;;32.93;16.27;99677.38;108032;1254;69339;-69
2023/04/22 08:15:49;;;;;;;11.20;7.20;;;;;;;32.91;15.87;99677.10;108011;1254;74209;-71
2023/04/22 08:18:17;;;;;;;10.60;6.60;;;;;;;33.22;15.93;99677.79;108027;1254;60450;-69
2023/04/22 08:20:46;;;;;;;11.40;7.10;;;;;;;33.19;15.72;99678.14;108076;1254;60207;-70
2023/04/22 08:23:14;;;;;;;10.20;6.80;;;;;;;33.35;15.77;99678.45;108021;1254;72826;-68
2023/04/22 08:25:42;;;;;;;13.80;6.60;;;;;;;33.53;15.62;99682.88;108066;1254;71991;-68
2023/04/22 08:28:10;;;;;;;20.50;7.00;;;;;;;33.76;15.15;99683.94;108086;1254;72368;-68
2023/04/22 08:30:38;;;;;;;14.20;8.20;;;;;;;34.10;14.87;99686.80;108059;1254;60399;-69
2023/04/22 08:33:06;;;;;;;11.00;6.80;;;;;;;34.17;14.77;99681.85;108054;1254;61778;-68
2023/04/22 08:35:34;;;;;;;10.80;6.40;;;;;;;34.69;14.46;99680.73;108108;1254;66505;-69
2023/04/22 08:38:02;;;;;;;14.00;6.30;;;;;;;34.83;14.40;99682.92;108064;1254;71352;-68
2023/04/22 08:40:31;;;;;;;9.60;6.10;;;;;;;34.84;13.92;99679.62;108099;1254;64105;-70
2023/04/22 08:42:59;;;;;;;8.70;5.60;;;;;;;35.11;14.24;99682.80;108121;1254;60329;-69
2023/04/22 08:45:27;;;;;;;16.60;6.40;;;;;;;35.58;13.84;99679.67;108041;1254;59260;-69
2023/04/22 08:47:54;;;;;;;10.40;5.90;;;;;;;35.97;13.66;99675.59;107931;1254;65238;-69
2023/04/22 08:50:24;;;;;;;8.40;5.60;;;;;;;36.10;13.60;99678.17;108003;1254;62577;-69
2023/04/22 08:52:52;;;;;;;9.80;5.70;;;;;;;36.16;13.10;99677.24;108045;1254;65122;-68
2023/04/22 08:55:20;;;;;;;10.10;5.90;;;;;;;36.03;13.10;99676.95;107987;1254;60834;-69
2023/04/22 08:57:49;;;;;;;10.90;5.70;;;;;;;36.03;12.80;99673.13;108017;1254;60486;-70
2023/04/22 09:00:18;;;;;;;8.50;5.70;;;;;;;35.79;12.73;99677.20;108036;1254;65281;-69
2023/04/22 09:02:47;;;;;;;10.70;5.60;;;;;;;35.49;12.91;99681.38;108055;1257;61584;-70
2023/04/22 09:05:15;;;;;;;9.50;5.40;;;;;;;35.64;13.16;99686.59;108033;1254;65137;-69
2023/04/22 09:07:44;;;;;;;7.30;4.90;;;;;;;35.79;12.47;99686.89;108034;1254;60527;-69
2023/04/22 09:10:12;;;;;;;9.20;5.70;;;;;;;36.01;12.62;99682.49;107990;1254;60586;-68
2023/04/22 09:12:40;;;;;;;7.70;4.90;;;;;;;36.17;12.65;99682.81;108047;1254;65207;-69
2023/04/22 09:15:09;;;;;;;8.70;5.50;;;;;;;36.03;12.51;99681.52;107908;1260;62655;-68
2023/04/22 09:17:38;;;;;;;8.50;5.20;;;;;;;35.69;12.22;99679.05;108056;1254;64722;-70
2023/04/22 09:20:07;;;;;;;7.60;4.90;;;;;;;35.61;12.35;99679.55;108065;1254;59578;-69
2023/04/22 09:22:43;;;;;;;7.30;5.00;;;;;;;35.79;12.62;99677.96;108072;1253;60363;-69
2023/04/22 09:25:19;;;;;;;8.70;4.70;;;;;;;36.35;11.92;99675.51;108104;1254;66305;-69
2023/04/22 09:27:57;;;;;;;9.40;5.20;;;;;;;36.47;11.61;99676.42;108107;1254;62729;-69
2023/04/22 09:30:29;;;;;;;9.40;4.40;;;;;;;36.56;11.70;99678.29;108093;1254;65392;-70
2023/04/22 09:33:00;;;;;;;19.50;5.80;;;;;;;36.27;11.65;99676.80;108089;1253;60181;-68
2023/04/22 09:35:30;;;;;;;9.00;5.50;;;;;;;35.77;12.12;99676.22;108162;1254;60401;-70
2023/04/22 09:38:00;;;;;;;9.70;5.10;;;;;;;35.81;11.97;99672.48;108063;1254;66413;-69
2023/04/22 09:40:29;;;;;;;8.50;5.30;;;;;;;35.67;12.15;99668.27;108090;1253;62265;-68
2023/04/22 09:42:59;;;;;;;9.30;5.50;;;;;;;35.35;12.35;99671.29;108049;1254;72285;-69
2023/04/22 09:45:28;;;;;;;9.20;5.40;;;;;;;35.44;12.23;99669.52;108102;1254;59208;-68
2023/04/22 09:47:59;;;;;;;8.20;5.20;;;;;;;35.40;11.72;99664.05;108064;1254;60446;-68
2023/04/22 09:50:28;;;;;;;7.40;4.70;;;;;;;35.57;12.54;99663.89;108041;1253;66188;-69
2023/04/22 09:52:59;;;;;;;13.30;5.50;;;;;;;36.26;11.99;99668.39;108056;1254;62475;-69
2023/04/22 09:55:27;;;;;;;;;;;;;;;36.53;11.51;99669.04;108012;1253;64782;-70
2023/04/22 09:57:56;;;;;;;8.90;4.50;;;;;;;37.01;11.30;99670.14;108046;1254;59085;-70
2023/04/22 10:00:27;;;;;;;8.20;4.60;;;;;;;37.18;10.77;99669.71;108010;1254;60485;-70
2023/04/22 10:02:56;;;;;;;7.70;4.80;;;;;;;36.81;10.78;99671.75;108092;1253;66116;-69
2023/04/22 10:05:24;;;;;;;12.60;4.80;;;;;;;36.04;10.97;99678.30;108040;1256;61586;-69
2023/04/22 10:07:52;;;;;;;6.90;4.70;;;;;;;35.28;11.27;99682.21;108047;1254;64789;-70
2023/04/22 10:10:20;;;;;;;10.50;5.20;;;;;;;35.07;11.67;99688.11;108109;1254;60463;-69
2023/04/22 10:12:48;;;;;;;8.80;4.80;;;;;;;34.16;12.18;99687.27;108067;1254;60358;-70
2023/04/22 10:15:16;;;;;;;6.80;4.40;;;;;;;33.71;12.24;99685.00;108061;1254;74881;-68
2023/04/22 10:17:45;;;;;;;6.70;4.80;;;;;;;33.52;12.13;99684.92;107971;1254;71642;-69
2023/04/22 10:20:15;;;;;;;8.00;4.70;;;;;;;33.64;11.70;99681.15;108073;1255;74312;-69
2023/04/22 10:22:44;;;;;;;7.00;4.80;;;;;;;33.44;11.45;99685.38;108062;1254;60363;-70
2023/04/22 10:25:23;;;;;;;9.80;5.30;;;;;;;33.03;12.22;99690.17;108057;1253;60291;-69
2023/04/22 10:28:05;;;;;;;10.50;5.60;;;;;;;33.08;12.47;99692.02;108107;1253;75080;-71
2023/04/22 10:30:35;;;;;;;8.70;4.80;;;;;;;33.15;12.21;99688.34;108009;1254;71551;-69
2023/04/22 10:33:30;;;;;;;7.50;3.40;;;;;;;32.76;12.14;99692.55;108059;1254;73556;-69
2023/04/22 10:36:14;;;;;;;11.10;4.70;;;;;;;32.88;12.49;99692.85;108031;1254;60456;-70
2023/04/22 10:38:54;;;;;;;7.40;4.20;;;;;;;33.06;12.84;99691.17;108021;1254;60984;-72
2023/04/22 10:41:30;;;;;;;6.00;4.20;;;;;;;32.97;12.83;99699.16;108043;1254;74193;-70
2023/04/22 10:44:08;;;;;;;8.40;4.70;;;;;;;32.79;12.37;99699.35;108045;1254;71341;-70
2023/04/22 10:46:38;;;;;;;9.10;5.70;;;;;;;32.71;12.83;99696.27;108081;1253;72076;-69
2023/04/22 10:49:17;;;;;;;9.20;5.30;;;;;;;32.97;13.04;99698.48;108046;1253;60639;-70
2023/04/22 10:51:46;;;;;;;9.10;4.90;;;;;;;32.97;12.81;99697.61;108025;1254;60290;-69
2023/04/22 10:54:35;;;;;;;8.10;4.70;;;;;;;32.98;13.18;99697.39;108031;1253;73979;-71
2023/04/22 10:57:10;;;;;;;7.80;5.00;;;;;;;32.56;12.93;99692.19;108071;1253;70677;-69
2023/04/22 10:59:48;;;;;;;11.40;5.70;;;;;;;32.28;13.06;99690.63;108107;1254;73661;-70
2023/04/22 11:02:18;;;;;;;8.20;5.10;;;;;;;32.68;13.11;99687.79;108116;1257;60514;-70
2023/04/22 11:04:46;;;;;;;7.20;4.70;;;;;;;33.00;13.07;99690.26;108101;1254;61798;-71
2023/04/22 11:07:26;;;;;;;8.90;4.90;;;;;;;33.21;12.73;99690.48;108081;1254;75082;-70
2023/04/22 11:10:00;;;;;;;40.90;26.50;;;;;;;33.31;12.47;99689.20;108098;1254;70996;-70
2023/04/22 11:12:34;;;;;;;8.50;5.10;;;;;;;33.43;12.79;99686.81;108065;1254;73908;-70
2023/04/22 11:15:12;;;;;;;7.10;4.60;;;;;;;33.36;12.07;99681.37;108001;1254;62040;-70
2023/04/22 11:17:42;;;;;;;8.10;4.60;;;;;;;32.98;12.22;99685.80;108016;1257;60535;-69
2023/04/22 11:20:11;;;;;;;8.30;4.70;;;;;;;33.72;12.05;99694.96;108089;1253;72484;-69
2023/04/22 11:22:41;;;;;;;6.50;3.80;;;;;;;33.82;11.72;99697.69;108058;1254;61312;-72
2023/04/22 11:25:09;;;;;;;5.60;3.70;;;;;;;33.61;12.17;99705.50;108058;1254;65317;-68
2023/04/22 11:27:38;;;;;;;6.30;4.20;;;;;;;33.04;12.39;99699.55;108065;1254;60165;-69
2023/04/22 11:30:08;;;;;;;9.40;5.90;;;;;;;33.03;12.67;99700.75;108046;1253;60425;-71